Time;durP1;ratioP1;P1;durP2;ratioP2;P2;SDS_P1;SDS_P2;PMS_P1;PMS_P2;Temp;Humidity;BMP_temperature;BMP_pressure;BME280_temperature;BME280_humidity;BME280_pressure;Samples;Min_cycle;Max_cycle;Signal;HPM_P1;HPM_P2
2022/08/09 00:01:35;;;;;;;3.13;1.90;;;14.90;99.90;;;;;;5033688;28;20052;-57
2022/08/09 00:04:01;;;;;;;3.28;2.33;;;14.90;99.90;;;;;;5028236;28;20408;-54
2022/08/09 00:06:27;;;;;;;3.72;2.47;;;14.90;99.90;;;;;;5034792;28;20037;-55
2022/08/09 00:08:53;;;;;;;2.65;2.17;;;14.90;99.90;;;;;;5031864;28;20518;-55
2022/08/09 00:11:20;;;;;;;4.07;1.80;;;14.80;99.90;;;;;;5027595;28;20037;-56
2022/08/09 00:13:46;;;;;;;4.00;2.30;;;14.90;99.90;;;;;;5027835;28;20192;-52
2022/08/09 00:16:12;;;;;;;4.20;2.00;;;14.80;99.90;;;;;;5028426;28;20120;-54
2022/08/09 00:18:38;;;;;;;5.43;2.70;;;14.80;99.90;;;;;;5010932;28;20468;-54
2022/08/09 00:21:06;;;;;;;3.88;2.70;;;14.80;99.90;;;;;;5016573;28;20091;-55
2022/08/09 00:23:33;;;;;;;3.90;2.17;;;14.80;99.90;;;;;;5034573;28;20044;-54
2022/08/09 00:25:58;;;;;;;3.15;2.47;;;14.80;99.90;;;;;;5031306;28;20048;-55
2022/08/09 00:28:24;;;;;;;3.80;2.40;;;14.70;99.90;;;;;;5027406;28;20041;-55
2022/08/09 00:30:51;;;;;;;3.67;2.78;;;14.80;99.90;;;;;;5020002;28;20072;-55
2022/08/09 00:33:17;;;;;;;4.03;2.92;;;14.80;99.90;;;;;;5011115;28;20044;-55
2022/08/09 00:35:44;;;;;;;3.92;2.80;;;14.90;99.90;;;;;;5028461;28;20447;-55
2022/08/09 00:38:11;;;;;;;5.13;2.50;;;14.80;99.90;;;;;;5028951;28;20033;-55
2022/08/09 00:40:41;;;;;;;4.53;3.10;;;14.80;99.90;;;;;;5045956;28;20168;-56
2022/08/09 00:43:07;;;;;;;3.53;2.25;;;14.80;99.90;;;;;;5026312;28;20568;-56
2022/08/09 00:45:34;;;;;;;4.82;3.83;;;14.90;99.90;;;;;;5027638;28;20333;-55
2022/08/09 00:48:00;;;;;;;4.45;3.50;;;14.90;99.90;;;;;;5026478;28;20102;-54
2022/08/09 00:50:26;;;;;;;5.25;2.90;;;14.90;99.90;;;;;;5029331;28;20045;-55
2022/08/09 00:52:52;;;;;;;5.07;3.40;;;14.90;99.90;;;;;;5029195;28;20040;-54
2022/08/09 00:55:18;;;;;;;4.88;3.28;;;14.80;99.90;;;;;;5025803;28;20319;-54
2022/08/09 00:57:44;;;;;;;4.85;3.55;;;14.80;99.90;;;;;;5024631;28;20049;-54
2022/08/09 01:00:11;;;;;;;5.68;3.83;;;14.70;99.90;;;;;;5031065;28;20038;-55
2022/08/09 01:02:47;;;;;;;3.40;2.80;;;14.70;99.90;;;;;;5032236;28;20033;-55
2022/08/09 01:05:32;;;;;;;4.75;3.35;;;14.70;99.90;;;;;;5035823;28;20136;-55
2022/08/09 01:08:08;;;;;;;6.30;3.40;;;14.70;99.90;;;;;;5054693;28;20044;-53
2022/08/09 01:10:42;;;;;;;3.90;3.50;;;14.60;99.90;;;;;;5037208;28;20496;-55
2022/08/09 01:13:39;;;;;;;5.20;3.25;;;14.60;99.90;;;;;;5041440;28;20040;-54
2022/08/09 01:16:07;;;;;;;4.18;3.35;;;14.60;99.90;;;;;;5036983;28;20086;-55
2022/08/09 01:18:35;;;;;;;5.00;3.13;;;14.50;99.90;;;;;;5039600;28;20041;-55
2022/08/09 01:21:06;;;;;;;6.72;3.80;;;14.50;99.90;;;;;;5039850;28;20124;-55
2022/08/09 01:24:03;;;;;;;4.22;3.38;;;14.60;99.90;;;;;;5040605;28;20037;-55
2022/08/09 01:26:54;;;;;;;4.25;3.15;;;14.60;99.90;;;;;;5040602;28;20500;-55
2022/08/09 01:29:34;;;;;;;7.15;4.38;;;14.60;99.90;;;;;;5032216;28;20281;-55
2022/08/09 01:32:03;;;;;;;4.82;3.55;;;14.60;99.90;;;;;;5042621;28;20115;-56
2022/08/09 01:34:31;;;;;;;3.92;2.97;;;14.60;99.90;;;;;;5033966;28;20927;-55
2022/08/09 01:37:00;;;;;;;5.32;3.28;;;14.50;99.90;;;;;;5029447;28;20048;-55
2022/08/09 01:39:27;;;;;;;4.53;3.20;;;14.40;99.90;;;;;;5028345;28;20454;-54
2022/08/09 01:41:54;;;;;;;5.85;2.80;;;14.40;99.90;;;;;;5023936;28;20043;-55
2022/08/09 01:44:21;;;;;;;4.03;3.20;;;14.30;99.90;;;;;;5031920;28;20045;-55
2022/08/09 01:46:49;;;;;;;3.28;2.60;;;14.30;99.90;;;;;;5029797;28;20099;-55
2022/08/09 01:49:18;;;;;;;3.08;2.30;;;14.30;99.90;;;;;;5025475;28;20103;-55
2022/08/09 01:51:57;;;;;;;3.28;2.33;;;14.30;99.90;;;;;;5030909;28;20044;-55
2022/08/09 01:54:32;;;;;;;2.20;1.77;;;14.20;99.90;;;;;;5020123;28;20126;-54
2022/08/09 01:57:04;;;;;;;2.45;1.70;;;14.20;99.90;;;;;;5025743;28;20053;-55
2022/08/09 01:59:30;;;;;;;3.55;1.80;;;14.10;99.90;;;;;;5027436;28;20439;-55
2022/08/09 02:01:57;;;;;;;2.60;1.55;;;14.10;99.90;;;;;;5008897;28;20051;-52
2022/08/09 02:04:25;;;;;;;4.72;1.90;;;14.10;99.90;;;;;;5025622;28;20128;-54
2022/08/09 02:07:07;;;;;;;1.73;1.50;;;14.00;99.90;;;;;;5052222;28;20127;-55
2022/08/09 02:09:36;;;;;;;2.45;1.60;;;14.00;99.90;;;;;;5026251;28;20404;-55
2022/08/09 02:12:06;;;;;;;3.15;1.70;;;13.90;99.90;;;;;;5027323;28;20037;-55
2022/08/09 02:14:33;;;;;;;2.95;1.55;;;13.90;99.90;;;;;;5030603;28;20365;-52
2022/08/09 02:16:59;;;;;;;2.45;1.83;;;13.90;99.90;;;;;;5020454;28;20076;-55
2022/08/09 02:19:25;;;;;;;2.30;1.90;;;13.80;99.90;;;;;;5019594;28;20142;-54
2022/08/09 02:21:56;;;;;;;3.05;2.38;;;13.80;99.90;;;;;;5012241;28;20091;-52
2022/08/09 02:24:31;;;;;;;2.30;1.80;;;13.80;99.90;;;;;;5028039;28;20159;-54
2022/08/09 02:27:03;;;;;;;2.63;1.55;;;13.80;99.90;;;;;;5034669;28;20048;-55
2022/08/09 02:29:35;;;;;;;3.40;1.80;;;13.70;99.90;;;;;;5024555;28;20051;-55
2022/08/09 02:32:03;;;;;;;3.50;1.75;;;13.70;99.90;;;;;;5036593;28;20037;-54
2022/08/09 02:34:32;;;;;;;2.42;1.90;;;13.70;99.90;;;;;;5024128;28;20067;-54
2022/08/09 02:37:04;;;;;;;1.63;1.30;;;13.70;99.90;;;;;;5049181;22;20129;-59
2022/08/09 02:39:34;;;;;;;4.65;2.35;;;13.70;99.90;;;;;;5026037;28;20062;-58
2022/08/09 02:42:11;;;;;;;4.70;2.78;;;13.70;99.90;;;;;;5012940;28;20038;-58
2022/08/09 02:44:41;;;;;;;4.53;2.63;;;13.70;99.90;;;;;;4993432;28;20457;-59
2022/08/09 02:47:13;;;;;;;2.55;1.70;;;13.70;99.90;;;;;;5012139;28;20044;-59
2022/08/09 02:49:46;;;;;;;2.63;1.90;;;13.70;99.90;;;;;;5008852;28;20125;-59
2022/08/09 02:52:15;;;;;;;3.28;2.13;;;13.70;99.90;;;;;;5002202;28;20068;-59
2022/08/09 02:54:43;;;;;;;3.40;2.00;;;13.70;99.90;;;;;;4989218;28;20065;-59
2022/08/09 02:57:10;;;;;;;3.15;2.03;;;13.70;99.90;;;;;;4996654;28;20057;-59
2022/08/09 02:59:38;;;;;;;2.92;2.05;;;13.70;99.90;;;;;;5006942;28;20298;-60
2022/08/09 03:02:06;;;;;;;2.67;1.83;;;13.60;99.90;;;;;;5005325;28;20049;-60
2022/08/09 03:04:34;;;;;;;3.38;2.33;;;13.60;99.90;;;;;;5007949;28;20072;-59
2022/08/09 03:07:02;;;;;;;2.83;2.10;;;13.50;99.90;;;;;;5007684;28;20055;-59
2022/08/09 03:09:30;;;;;;;3.10;1.63;;;13.50;99.90;;;;;;5009618;28;20056;-59
2022/08/09 03:11:58;;;;;;;2.70;1.98;;;13.50;99.90;;;;;;4994242;28;20041;-60
2022/08/09 03:14:24;;;;;;;2.20;1.73;;;13.50;99.90;;;;;;5010343;28;20116;-59
2022/08/09 03:16:52;;;;;;;3.47;2.45;;;13.60;99.90;;;;;;5002548;28;20499;-60
2022/08/09 03:19:19;;;;;;;3.20;2.63;;;13.60;99.90;;;;;;5012206;28;20132;-60
2022/08/09 03:21:49;;;;;;;3.75;2.28;;;13.60;99.90;;;;;;5008135;28;20049;-59
2022/08/09 03:24:15;;;;;;;2.72;2.13;;;13.60;99.90;;;;;;5004984;28;20132;-59
2022/08/09 03:26:43;;;;;;;3.25;2.53;;;13.50;99.90;;;;;;5013025;28;20566;-60
2022/08/09 03:29:09;;;;;;;3.80;2.58;;;13.50;99.90;;;;;;5028919;28;20396;-60
2022/08/09 03:31:36;;;;;;;3.17;2.30;;;13.60;99.90;;;;;;5002688;28;20073;-60
2022/08/09 03:34:03;;;;;;;4.13;2.75;;;13.60;99.90;;;;;;5021354;28;20044;-59
2022/08/09 03:36:29;;;;;;;3.67;2.60;;;13.50;99.90;;;;;;5011618;28;20045;-59
2022/08/09 03:38:55;;;;;;;5.20;2.95;;;13.60;99.90;;;;;;5010147;28;20056;-61
2022/08/09 03:41:21;;;;;;;3.10;2.38;;;13.50;99.90;;;;;;5003572;28;20050;-59
2022/08/09 03:43:47;;;;;;;3.78;2.92;;;13.50;99.90;;;;;;4973685;28;20041;-60
2022/08/09 03:46:13;;;;;;;2.42;1.85;;;13.50;99.90;;;;;;5015080;28;20200;-61
2022/08/09 03:48:39;;;;;;;3.95;3.55;;;13.50;99.90;;;;;;5015726;28;20048;-59
2022/08/09 03:51:08;;;;;;;5.22;3.88;;;13.60;99.90;;;;;;5012070;28;20355;-59
2022/08/09 03:53:36;;;;;;;4.75;2.88;;;13.70;99.90;;;;;;5011897;28;20045;-59
2022/08/09 03:56:03;;;;;;;3.55;2.90;;;13.70;99.90;;;;;;5010487;28;20033;-60
2022/08/09 03:58:29;;;;;;;4.82;3.85;;;13.70;99.90;;;;;;5003953;28;20038;-60
2022/08/09 04:00:55;;;;;;;6.22;4.22;;;13.70;99.90;;;;;;4996925;28;20635;-60
2022/08/09 04:03:21;;;;;;;3.67;2.28;;;13.70;99.90;;;;;;5002062;28;20041;-59
2022/08/09 04:05:47;;;;;;;6.15;4.28;;;13.70;99.90;;;;;;5011997;28;20073;-60
2022/08/09 04:08:13;;;;;;;6.20;4.50;;;13.70;99.90;;;;;;5007472;28;20121;-60
2022/08/09 04:10:38;;;;;;;6.63;4.93;;;13.70;99.90;;;;;;5009351;28;20210;-59
2022/08/09 04:13:08;;;;;;;6.97;4.30;;;13.70;99.90;;;;;;5009755;28;20037;-59
2022/08/09 04:15:36;;;;;;;7.10;4.20;;;13.90;99.90;;;;;;4989640;28;20043;-60
2022/08/09 04:18:03;;;;;;;4.53;3.17;;;13.70;99.90;;;;;;4993123;28;20052;-60
2022/08/09 04:20:29;;;;;;;5.45;4.40;;;13.70;99.90;;;;;;5016854;28;20103;-61
2022/08/09 04:22:55;;;;;;;5.45;3.60;;;13.70;99.90;;;;;;5008959;28;20046;-60
2022/08/09 04:25:20;;;;;;;6.32;4.88;;;13.70;99.90;;;;;;4998013;28;20736;-60
2022/08/09 04:27:46;;;;;;;6.15;4.35;;;13.80;99.90;;;;;;5007522;28;20033;-60
2022/08/09 04:30:14;;;;;;;6.10;4.38;;;13.90;99.90;;;;;;5015637;28;20037;-59
2022/08/09 04:32:41;;;;;;;10.05;5.45;;;13.80;99.90;;;;;;5029347;28;20058;-59
2022/08/09 04:35:09;;;;;;;5.68;4.32;;;13.90;99.90;;;;;;5016078;28;20025;-59
2022/08/09 04:37:36;;;;;;;6.20;4.72;;;13.80;99.90;;;;;;5018173;28;20369;-59
2022/08/09 04:40:03;;;;;;;4.32;2.60;;;13.80;99.90;;;;;;5016117;28;20515;-61
2022/08/09 04:42:30;;;;;;;6.30;5.05;;;13.70;99.90;;;;;;5029839;28;20520;-59
2022/08/09 04:44:57;;;;;;;6.30;4.25;;;13.80;99.90;;;;;;5005444;28;20041;-61
2022/08/09 04:47:24;;;;;;;8.90;4.70;;;13.80;99.90;;;;;;5013442;28;20045;-60
2022/08/09 04:49:50;;;;;;;6.47;4.50;;;13.70;99.90;;;;;;5001790;28;20152;-60
2022/08/09 04:52:17;;;;;;;5.78;3.78;;;13.70;99.90;;;;;;5021995;28;20174;-59
2022/08/09 04:54:43;;;;;;;8.50;3.97;;;13.70;99.90;;;;;;5036000;28;20046;-60
2022/08/09 04:57:10;;;;;;;4.60;2.80;;;13.70;99.90;;;;;;5017257;28;20068;-59
2022/08/09 04:59:35;;;;;;;4.80;3.42;;;13.70;99.90;;;;;;5008544;28;20041;-59
2022/08/09 05:02:01;;;;;;;5.57;3.35;;;13.80;99.90;;;;;;5018381;28;20102;-59
2022/08/09 05:04:27;;;;;;;5.80;3.70;;;13.80;99.90;;;;;;5000944;28;20478;-59
2022/08/09 05:06:53;;;;;;;7.45;4.55;;;13.70;99.90;;;;;;5017908;28;20050;-60
2022/08/09 05:09:20;;;;;;;5.35;3.45;;;13.90;99.90;;;;;;5017207;28;20041;-60
2022/08/09 05:11:46;;;;;;;7.40;4.07;;;13.90;99.90;;;;;;5014107;28;20176;-61
2022/08/09 05:14:12;;;;;;;6.43;4.18;;;13.90;99.90;;;;;;4996421;28;20076;-59
2022/08/09 05:16:37;;;;;;;7.22;4.47;;;14.00;99.90;;;;;;5016992;28;20073;-59
2022/08/09 05:19:04;;;;;;;5.03;3.50;;;14.00;99.90;;;;;;5011462;28;20097;-60
2022/08/09 05:21:30;;;;;;;7.50;4.25;;;14.00;99.90;;;;;;5003801;28;20053;-60
2022/08/09 05:23:56;;;;;;;6.60;3.97;;;14.10;99.90;;;;;;5009430;28;20133;-60
2022/08/09 05:26:22;;;;;;;8.80;3.28;;;14.10;99.90;;;;;;5013292;28;20557;-60
2022/08/09 05:28:47;;;;;;;5.25;3.65;;;14.10;99.90;;;;;;5009204;28;20098;-59
2022/08/09 05:31:13;;;;;;;6.32;4.60;;;14.20;99.90;;;;;;5011539;28;20052;-60
2022/08/09 05:33:39;;;;;;;7.32;4.05;;;14.20;99.90;;;;;;5014830;28;20468;-61
2022/08/09 05:36:05;;;;;;;7.25;4.60;;;14.30;99.90;;;;;;5010745;28;20042;-60
2022/08/09 05:38:31;;;;;;;8.98;6.43;;;14.40;99.90;;;;;;4994531;28;20045;-59
2022/08/09 05:40:57;;;;;;;6.63;4.57;;;14.50;99.90;;;;;;5011297;28;20396;-60
2022/08/09 05:43:23;;;;;;;8.93;6.13;;;14.60;99.90;;;;;;5008718;28;20251;-61
2022/08/09 05:45:49;;;;;;;6.50;4.45;;;14.70;99.90;;;;;;4995666;28;20037;-61
2022/08/09 05:48:15;;;;;;;8.65;4.90;;;14.70;99.90;;;;;;5008225;28;20042;-61
2022/08/09 05:50:42;;;;;;;7.05;4.40;;;14.90;99.90;;;;;;5009136;28;20061;-61
2022/08/09 05:53:09;;;;;;;4.82;3.22;;;15.00;99.90;;;;;;5015163;28;20068;-60
2022/08/09 05:55:35;;;;;;;5.45;3.83;;;15.10;99.90;;;;;;5016157;28;20488;-61
2022/08/09 05:58:01;;;;;;;5.00;3.72;;;15.10;99.90;;;;;;5007889;28;20108;-61
2022/08/09 06:00:29;;;;;;;6.93;4.72;;;15.20;99.90;;;;;;5013318;28;20096;-61
2022/08/09 06:02:57;;;;;;;6.93;5.00;;;15.40;99.90;;;;;;5013490;28;21350;-61
2022/08/09 06:05:25;;;;;;;8.45;5.85;;;15.50;99.90;;;;;;5003878;28;20396;-62
2022/08/09 06:07:50;;;;;;;5.13;4.18;;;15.60;99.90;;;;;;5019864;28;20053;-60
2022/08/09 06:10:16;;;;;;;9.60;5.47;;;15.70;99.90;;;;;;5009692;28;20132;-60
2022/08/09 06:12:42;;;;;;;6.18;5.25;;;15.80;99.90;;;;;;5026849;28;20050;-61
2022/08/09 06:15:08;;;;;;;9.20;6.18;;;16.00;99.90;;;;;;5006135;28;20037;-60
2022/08/09 06:17:34;;;;;;;10.05;5.88;;;16.10;99.90;;;;;;5004994;28;20096;-60
2022/08/09 06:19:59;;;;;;;11.00;5.47;;;16.30;99.90;;;;;;4986125;28;20033;-59
2022/08/09 06:22:25;;;;;;;6.93;4.45;;;16.30;99.90;;;;;;4997036;28;20116;-60
2022/08/09 06:24:51;;;;;;;10.50;6.22;;;16.50;99.90;;;;;;5008134;28;20044;-59
2022/08/09 06:27:16;;;;;;;11.00;6.32;;;16.60;99.90;;;;;;5008182;28;20053;-61
2022/08/09 06:29:43;;;;;;;7.60;5.65;;;16.80;99.90;;;;;;4992217;28;20045;-60
2022/08/09 06:32:08;;;;;;;9.48;4.75;;;16.90;99.90;;;;;;5005843;28;20116;-60
2022/08/09 06:34:37;;;;;;;8.18;5.20;;;17.00;99.90;;;;;;5009692;28;20092;-60
2022/08/09 06:37:03;;;;;;;7.80;4.57;;;17.10;99.90;;;;;;4996266;28;20090;-61
2022/08/09 06:39:30;;;;;;;11.15;4.93;;;17.20;99.90;;;;;;4999570;28;20396;-60
2022/08/09 06:41:56;;;;;;;7.45;4.28;;;17.20;99.90;;;;;;5000009;28;20049;-60
2022/08/09 06:44:21;;;;;;;9.93;4.15;;;17.40;99.90;;;;;;4999136;28;20477;-61
2022/08/09 06:46:49;;;;;;;7.05;3.83;;;17.50;99.90;;;;;;5000242;28;20570;-60
2022/08/09 06:49:14;;;;;;;7.97;4.47;;;17.60;99.90;;;;;;4997260;28;20044;-60
2022/08/09 06:51:40;;;;;;;10.88;4.75;;;17.70;99.90;;;;;;5014713;28;20041;-60
2022/08/09 06:54:06;;;;;;;7.28;4.15;;;17.80;99.90;;;;;;4989058;28;20042;-61
2022/08/09 06:56:32;;;;;;;9.77;4.10;;;17.90;99.90;;;;;;5006389;28;20289;-61
2022/08/09 06:58:58;;;;;;;6.70;4.22;;;18.00;99.90;;;;;;5005653;28;20488;-61
2022/08/09 07:01:24;;;;;;;6.55;3.78;;;18.00;99.90;;;;;;5006425;28;20038;-60
2022/08/09 07:03:49;;;;;;;7.47;4.10;;;18.10;99.90;;;;;;5011284;28;20030;-61
2022/08/09 07:06:15;;;;;;;7.07;3.90;;;18.20;99.90;;;;;;5015219;28;20551;-59
2022/08/09 07:08:41;;;;;;;10.18;4.45;;;18.30;99.90;;;;;;5020864;28;20099;-61
2022/08/09 07:11:07;;;;;;;7.28;4.07;;;18.40;99.90;;;;;;5008725;28;20080;-61
2022/08/09 07:13:34;;;;;;;6.95;4.45;;;18.50;99.90;;;;;;4996363;28;20037;-61
2022/08/09 07:15:59;;;;;;;7.35;4.18;;;18.60;99.90;;;;;;5013465;28;20041;-61
2022/08/09 07:18:25;;;;;;;9.50;4.35;;;18.80;99.90;;;;;;5012794;28;20049;-61
2022/08/09 07:20:51;;;;;;;6.05;3.20;;;18.80;99.90;;;;;;4993071;28;20500;-61
2022/08/09 07:23:17;;;;;;;6.75;3.55;;;18.90;99.90;;;;;;5025742;28;20033;-60
2022/08/09 07:25:43;;;;;;;6.72;3.10;;;19.00;99.90;;;;;;5012505;28;20415;-61
2022/08/09 07:28:11;;;;;;;5.53;2.92;;;19.10;99.90;;;;;;5007626;28;20042;-61
2022/08/09 07:30:37;;;;;;;5.95;2.38;;;19.20;99.90;;;;;;5013490;28;20048;-60
2022/08/09 07:33:03;;;;;;;3.38;2.35;;;19.30;99.90;;;;;;5001406;28;20195;-61
2022/08/09 07:35:29;;;;;;;4.28;2.22;;;19.30;99.90;;;;;;5002962;28;20488;-61
2022/08/09 07:37:54;;;;;;;4.93;1.98;;;19.40;99.90;;;;;;5019050;28;20397;-61
2022/08/09 07:40:20;;;;;;;4.82;2.10;;;19.40;99.90;;;;;;5010599;28;20034;-61
2022/08/09 07:42:57;;;;;;;3.28;1.98;;;19.40;99.90;;;;;;5011154;28;20033;-61
2022/08/09 07:45:26;;;;;;;4.97;2.10;;;19.50;99.90;;;;;;4992637;28;20048;-61
2022/08/09 07:47:53;;;;;;;5.05;2.28;;;19.60;99.90;;;;;;5022090;28;20072;-61
2022/08/09 07:50:20;;;;;;;6.70;2.50;;;19.70;99.90;;;;;;5007932;28;20034;-61
2022/08/09 07:52:50;;;;;;;4.20;2.00;;;19.70;99.90;;;;;;5014343;28;20034;-61
2022/08/09 07:55:16;;;;;;;3.75;2.30;;;19.90;99.90;;;;;;5013723;28;20057;-61
2022/08/09 07:57:44;;;;;;;4.65;2.72;;;20.00;99.90;;;;;;4999173;28;20045;-61
2022/08/09 08:00:10;;;;;;;2.50;1.90;;;20.10;99.90;;;;;;5009213;28;20500;-61
2022/08/09 08:02:36;;;;;;;5.55;2.05;;;20.30;99.90;;;;;;5002815;28;22733;-62
2022/08/09 08:05:02;;;;;;;4.85;2.33;;;20.40;99.90;;;;;;5025699;28;20052;-61
2022/08/09 08:07:28;;;;;;;3.42;2.03;;;20.50;99.90;;;;;;5004679;28;20049;-61
2022/08/09 08:09:54;;;;;;;4.55;2.20;;;20.40;99.90;;;;;;5017526;28;20504;-61
2022/08/09 08:12:20;;;;;;;4.38;2.00;;;20.20;99.90;;;;;;5018116;28;20108;-61
2022/08/09 08:14:45;;;;;;;5.95;2.22;;;20.10;99.90;;;;;;5016255;28;20163;-61
2022/08/09 08:17:11;;;;;;;3.45;2.10;;;20.00;99.90;;;;;;5027385;28;20033;-61
2022/08/09 08:19:37;;;;;;;7.95;2.47;;;20.10;99.90;;;;;;5015971;28;20043;-61
2022/08/09 08:22:03;;;;;;;5.60;2.45;;;20.20;99.90;;;;;;5022381;28;20037;-62
2022/08/09 08:24:30;;;;;;;5.78;2.30;;;20.40;99.90;;;;;;5001515;28;20819;-61
2022/08/09 08:26:56;;;;;;;4.65;2.30;;;20.60;99.90;;;;;;5022500;28;20042;-62
2022/08/09 08:29:25;;;;;;;2.75;1.95;;;20.70;99.90;;;;;;4999747;28;20041;-61
2022/08/09 08:31:51;;;;;;;4.10;2.40;;;21.00;99.90;;;;;;5003581;28;20034;-61
2022/08/09 08:34:20;;;;;;;5.07;2.08;;;21.30;99.90;;;;;;4996560;28;20120;-61
2022/08/09 08:36:45;;;;;;;3.63;1.75;;;21.40;99.90;;;;;;5015683;28;20128;-62
2022/08/09 08:39:12;;;;;;;5.03;1.98;;;21.60;99.90;;;;;;5049214;22;20116;-60
2022/08/09 08:41:41;;;;;;;3.90;1.80;;;21.70;99.90;;;;;;5049172;28;20326;-54
2022/08/09 08:44:08;;;;;;;6.72;2.10;;;21.60;99.90;;;;;;5059003;28;20053;-52
2022/08/09 08:46:39;;;;;;;5.03;1.52;;;21.40;99.90;;;;;;5051102;28;20568;-58
2022/08/09 08:49:10;;;;;;;5.10;1.85;;;21.30;99.90;;;;;;5038180;28;20036;-54
2022/08/09 08:51:36;;;;;;;4.22;1.60;;;21.20;99.90;;;;;;5052892;28;20044;-56
2022/08/09 08:54:06;;;;;;;4.28;1.45;;;21.10;99.90;;;;;;5049493;28;20048;-53
2022/08/09 08:56:37;;;;;;;2.80;1.60;;;20.90;99.90;;;;;;5043182;28;20514;-51
2022/08/09 08:59:11;;;;;;;6.38;1.58;;;20.80;99.90;;;;;;5050810;28;20461;-57
2022/08/09 09:01:40;;;;;;;4.53;1.30;;;20.70;99.90;;;;;;5055205;28;20039;-54
2022/08/09 09:04:11;;;;;;;4.82;1.40;;;20.70;99.90;;;;;;5055083;28;20198;-52
2022/08/09 09:06:42;;;;;;;3.17;1.60;;;20.90;99.90;;;;;;5055003;28;20044;-56
2022/08/09 09:09:08;;;;;;;3.35;1.55;;;21.10;99.90;;;;;;5055464;28;20517;-56
2022/08/09 09:11:35;;;;;;;4.53;2.03;;;21.20;99.90;;;;;;5041213;28;20076;-53
2022/08/09 09:14:12;;;;;;;3.22;1.80;;;21.10;99.90;;;;;;5033971;28;20517;-54
2022/08/09 09:16:38;;;;;;;3.38;1.52;;;21.20;99.90;;;;;;5051853;28;20189;-58
2022/08/09 09:19:06;;;;;;;4.30;1.70;;;21.40;99.90;;;;;;5053705;28;20132;-57
2022/08/09 09:21:32;;;;;;;5.00;1.60;;;21.60;99.90;;;;;;5054644;28;20144;-57
2022/08/09 09:24:03;;;;;;;2.65;1.40;;;21.80;99.90;;;;;;5037063;28;20419;-54
2022/08/09 09:26:29;;;;;;;2.63;1.50;;;22.00;99.90;;;;;;5051677;28;20244;-56
2022/08/09 09:28:55;;;;;;;7.60;1.92;;;22.20;99.90;;;;;;5053791;28;20444;-54
2022/08/09 09:31:23;;;;;;;3.97;1.40;;;22.30;99.90;;;;;;5056836;28;20123;-53
2022/08/09 09:33:49;;;;;;;2.20;1.27;;;22.30;99.90;;;;;;5053352;28;20052;-55
2022/08/09 09:36:15;;;;;;;3.80;1.55;;;22.20;99.90;;;;;;5041626;28;20056;-56
2022/08/09 09:38:58;;;;;;;3.38;1.63;;;22.20;99.90;;;;;;5049112;28;20052;-57
2022/08/09 09:41:26;;;;;;;3.17;1.42;;;22.00;99.90;;;;;;5060464;28;20047;-55
2022/08/09 09:43:58;;;;;;;2.85;1.50;;;21.80;99.90;;;;;;5055379;28;20516;-56
2022/08/09 09:46:35;;;;;;;3.20;1.60;;;21.80;99.90;;;;;;5042550;28;20129;-58
2022/08/09 09:49:04;;;;;;;2.72;1.40;;;21.80;99.90;;;;;;5056135;28;20059;-57
2022/08/09 09:51:31;;;;;;;3.90;2.50;;;21.90;99.90;;;;;;5048726;28;20053;-57
2022/08/09 09:54:06;;;;;;;6.75;1.48;;;22.00;99.90;;;;;;5049398;28;20047;-57
2022/08/09 09:56:34;;;;;;;3.63;1.90;;;22.00;99.90;;;;;;5053629;28;20044;-54
2022/08/09 09:59:00;;;;;;;2.03;1.20;;;22.00;99.90;;;;;;5052965;28;20063;-52
2022/08/09 10:01:27;;;;;;;1.67;1.23;;;21.90;99.90;;;;;;5052889;28;20083;-55
2022/08/09 10:03:54;;;;;;;3.83;1.27;;;22.00;99.90;;;;;;5052597;28;20054;-59
2022/08/09 10:06:20;;;;;;;2.05;1.30;;;22.00;99.90;;;;;;5052770;28;20052;-56
2022/08/09 10:08:48;;;;;;;3.08;1.15;;;22.10;99.90;;;;;;5035770;28;20047;-58
2022/08/09 10:11:29;;;;;;;2.20;1.20;;;22.20;99.90;;;;;;5051402;28;20052;-57
2022/08/09 10:13:54;;;;;;;4.35;1.13;;;22.30;99.90;;;;;;5047447;28;20048;-56
2022/08/09 10:16:28;;;;;;;1.92;1.35;;;22.50;99.90;;;;;;5051945;28;20128;-57
2022/08/09 10:18:56;;;;;;;1.98;1.10;;;22.60;99.90;;;;;;5045454;28;20484;-58
2022/08/09 10:21:23;;;;;;;2.20;1.02;;;22.60;99.90;;;;;;5048319;28;20109;-55
2022/08/09 10:23:50;;;;;;;2.20;1.10;;;22.60;99.90;;;;;;5049943;28;20058;-54
2022/08/09 10:26:16;;;;;;;3.83;1.02;;;22.50;99.90;;;;;;5032500;28;20338;-57
2022/08/09 10:28:43;;;;;;;2.67;1.15;;;22.40;99.90;;;;;;5029155;28;20384;-56
2022/08/09 10:31:11;;;;;;;1.73;1.00;;;22.40;99.90;;;;;;5051926;28;20052;-58
2022/08/09 10:33:37;;;;;;;2.40;1.20;;;22.40;99.90;;;;;;5036388;28;20064;-59
2022/08/09 10:36:07;;;;;;;3.55;1.17;;;22.40;99.90;;;;;;5026566;28;20052;-52
2022/08/09 10:38:35;;;;;;;2.78;1.48;;;22.30;99.90;;;;;;5048444;28;20048;-60
2022/08/09 10:41:01;;;;;;;3.05;1.10;;;22.20;99.90;;;;;;5048291;28;20049;-58
2022/08/09 10:43:27;;;;;;;3.08;1.10;;;22.10;99.90;;;;;;5033491;28;20135;-57
2022/08/09 10:45:53;;;;;;;3.13;1.00;;;22.20;99.90;;;;;;5031807;28;20155;-58
2022/08/09 10:48:25;;;;;;;2.15;0.90;;;22.50;99.90;;;;;;5046056;28;20064;-59
2022/08/09 10:51:05;;;;;;;2.25;0.98;;;22.80;99.90;;;;;;5044103;28;20041;-58
2022/08/09 10:54:01;;;;;;;2.42;1.13;;;23.10;99.90;;;;;;5054651;28;20047;-56
2022/08/09 10:56:29;;;;;;;2.33;1.00;;;23.60;99.90;;;;;;5030002;28;20526;-57
2022/08/09 10:59:19;;;;;;;4.35;0.70;;;23.90;99.80;;;;;;5052157;28;20040;-57
2022/08/09 11:01:45;;;;;;;1.08;0.70;;;23.90;98.80;;;;;;5043103;28;20051;-56
2022/08/09 11:04:12;;;;;;;2.92;0.70;;;23.70;98.60;;;;;;5047142;28;20041;-57
2022/08/09 11:06:40;;;;;;;2.58;0.80;;;23.50;98.90;;;;;;5042048;28;20507;-59
2022/08/09 11:09:07;;;;;;;1.33;0.60;;;23.50;99.40;;;;;;5027138;28;20048;-55
2022/08/09 11:12:12;;;;;;;1.60;0.70;;;23.60;99.40;;;;;;5043057;28;20048;-58
2022/08/09 11:14:50;;;;;;;1.13;0.80;;;23.70;98.70;;;;;;5022944;28;20048;-55
2022/08/09 11:17:15;;;;;;;1.73;0.68;;;23.70;98.40;;;;;;5028800;28;20044;-60
2022/08/09 11:20:10;;;;;;;2.05;1.23;;;24.10;98.90;;;;;;5043557;28;20043;-58
2022/08/09 11:22:48;;;;;;;2.33;0.80;;;24.40;98.40;;;;;;5047234;28;20047;-56
2022/08/09 11:25:35;;;;;;;0.60;0.60;;;24.50;98.00;;;;;;5041730;28;20575;-56
2022/08/09 11:28:32;;;;;;;2.03;0.70;;;24.60;97.50;;;;;;5030347;28;20051;-58
2022/08/09 11:31:00;;;;;;;2.60;0.65;;;24.60;97.00;;;;;;5033420;28;20518;-59
2022/08/09 11:33:37;;;;;;;2.45;1.15;;;24.40;97.30;;;;;;5033806;28;20048;-58
2022/08/09 11:36:03;;;;;;;1.25;0.70;;;24.40;97.40;;;;;;5050945;28;20076;-60
2022/08/09 11:38:32;;;;;;;0.77;0.63;;;24.60;97.00;;;;;;5045380;28;20196;-52
2022/08/09 11:41:12;;;;;;;1.75;0.80;;;24.80;97.20;;;;;;5038134;28;20055;-57
2022/08/09 11:43:41;;;;;;;1.73;0.90;;;24.90;96.50;;;;;;5028550;28;20041;-55
2022/08/09 11:46:08;;;;;;;2.17;1.48;;;25.00;96.20;;;;;;5042688;28;20068;-57
2022/08/09 11:48:51;;;;;;;1.65;0.70;;;24.90;95.90;;;;;;5043542;28;20044;-57
2022/08/09 11:51:22;;;;;;;1.73;0.80;;;25.00;96.30;;;;;;5040169;28;20123;-56
2022/08/09 11:54:08;;;;;;;0.88;0.60;;;25.30;96.00;;;;;;5044822;28;20040;-60
2022/08/09 11:56:34;;;;;;;1.17;0.70;;;25.30;96.30;;;;;;5042714;28;20045;-57
2022/08/09 11:59:00;;;;;;;2.38;0.85;;;25.60;96.30;;;;;;5041712;28;20122;-58
2022/08/09 12:01:39;;;;;;;2.80;0.95;;;25.70;95.30;;;;;;5037589;28;20648;-60
2022/08/09 12:04:16;;;;;;;1.45;0.60;;;25.80;95.00;;;;;;5039025;28;20056;-58
2022/08/09 12:06:54;;;;;;;1.50;0.60;;;25.90;94.70;;;;;;5043200;28;20053;-58
2022/08/09 12:09:29;;;;;;;2.97;0.73;;;25.90;94.60;;;;;;5037320;28;20495;-60
2022/08/09 12:11:59;;;;;;;0.93;0.70;;;26.00;94.80;;;;;;5024249;28;20291;-57
2022/08/09 12:14:29;;;;;;;1.65;0.60;;;26.10;94.30;;;;;;5041971;28;21556;-58
2022/08/09 12:16:55;;;;;;;1.15;0.60;;;26.10;94.40;;;;;;5035913;28;20079;-57
2022/08/09 12:19:30;;;;;;;1.63;0.68;;;26.20;94.50;;;;;;5045379;28;20592;-56
2022/08/09 12:22:02;;;;;;;5.13;1.10;;;26.20;93.60;;;;;;5035750;28;20045;-58
2022/08/09 12:24:28;;;;;;;2.58;0.68;;;26.10;94.00;;;;;;5042176;28;20036;-60
2022/08/09 12:26:55;;;;;;;2.08;0.63;;;26.20;94.10;;;;;;5046154;28;20047;-57
2022/08/09 12:29:23;;;;;;;2.22;0.90;;;26.30;94.10;;;;;;5024953;28;20047;-55
2022/08/09 12:31:58;;;;;;;1.95;0.80;;;26.40;93.50;;;;;;5038747;28;20048;-56
2022/08/09 12:34:39;;;;;;;1.65;0.60;;;26.40;93.40;;;;;;5036895;28;20045;-58
2022/08/09 12:37:05;;;;;;;1.50;0.70;;;26.50;93.80;;;;;;5042887;28;20985;-58
2022/08/09 12:39:31;;;;;;;2.22;0.50;;;26.60;93.40;;;;;;5039825;28;20036;-58
2022/08/09 12:42:08;;;;;;;1.48;0.60;;;26.60;93.10;;;;;;5041891;28;20094;-59
2022/08/09 12:44:38;;;;;;;3.92;1.00;;;26.70;92.80;;;;;;5037968;28;20051;-57
2022/08/09 12:47:05;;;;;;;1.15;0.70;;;26.80;93.80;;;;;;5043912;28;20554;-58
2022/08/09 12:49:32;;;;;;;1.52;0.60;;;27.00;93.30;;;;;;5049096;28;20128;-60
2022/08/09 12:51:58;;;;;;;1.50;0.50;;;26.90;92.60;;;;;;5026627;28;20047;-59
2022/08/09 12:54:27;;;;;;;1.65;0.60;;;27.00;92.60;;;;;;5030504;28;20044;-58